sensor_id;sensor_type;location;lat;lon;timestamp;pressure;altitude;pressure_sealevel;temperature;humidity
56825;BME280;42705;50.326;18.772;2023-08-06T00:03:16;97277.39;;;19.05;79.91
56825;BME280;42705;50.326;18.772;2023-08-06T00:08:38;97257.47;;;19.02;79.95
56825;BME280;42705;50.326;18.772;2023-08-06T00:14:00;97225.81;;;19.00;80.02
56825;BME280;42705;50.326;18.772;2023-08-06T00:19:21;97196.56;;;18.96;80.14
56825;BME280;42705;50.326;18.772;2023-08-06T00:24:43;97177.34;;;18.96;80.37
56825;BME280;42705;50.326;18.772;2023-08-06T00:30:05;97151.63;;;18.98;80.45
56825;BME280;42705;50.326;18.772;2023-08-06T00:35:29;97111.27;;;18.93;80.45
56825;BME280;42705;50.326;18.772;2023-08-06T00:40:51;97072.41;;;18.84;80.60
56825;BME280;42705;50.326;18.772;2023-08-06T00:46:14;97053.71;;;18.79;80.74
56825;BME280;42705;50.326;18.772;2023-08-06T00:51:37;97018.02;;;18.76;80.90
56825;BME280;42705;50.326;18.772;2023-08-06T00:57:01;96992.31;;;18.75;81.13
56825;BME280;42705;50.326;18.772;2023-08-06T01:02:23;97036.38;;;18.79;81.36
56825;BME280;42705;50.326;18.772;2023-08-06T01:08:05;97057.94;;;18.93;81.62
56825;BME280;42705;50.326;18.772;2023-08-06T01:13:43;97011.52;;;19.04;81.47
56825;BME280;42705;50.326;18.772;2023-08-06T01:19:18;96988.73;;;19.10;81.33
56825;BME280;42705;50.326;18.772;2023-08-06T01:24:40;96968.80;;;19.21;81.33
56825;BME280;42705;50.326;18.772;2023-08-06T01:30:06;96969.88;;;19.24;81.14
56825;BME280;42705;50.326;18.772;2023-08-06T01:35:32;96981.88;;;19.27;81.07
56825;BME280;42705;50.326;18.772;2023-08-06T01:40:55;96982.46;;;19.32;81.12
56825;BME280;42705;50.326;18.772;2023-08-06T01:46:16;96959.41;;;19.36;80.96
56825;BME280;42705;50.326;18.772;2023-08-06T01:51:39;96938.02;;;19.42;80.71
56825;BME280;42705;50.326;18.772;2023-08-06T01:57:01;96931.77;;;19.46;80.66
56825;BME280;42705;50.326;18.772;2023-08-06T02:02:24;96935.33;;;19.48;80.58
56825;BME280;42705;50.326;18.772;2023-08-06T02:07:45;96937.73;;;19.51;80.32
56825;BME280;42705;50.326;18.772;2023-08-06T02:13:07;96938.02;;;19.55;80.37
56825;BME280;42705;50.326;18.772;2023-08-06T02:18:29;96949.89;;;19.57;80.20
56825;BME280;42705;50.326;18.772;2023-08-06T02:23:51;96947.83;;;19.63;80.22
56825;BME280;42705;50.326;18.772;2023-08-06T02:29:13;96948.75;;;19.66;80.24
56825;BME280;42705;50.326;18.772;2023-08-06T02:34:35;96943.89;;;19.67;80.15
56825;BME280;42705;50.326;18.772;2023-08-06T02:39:56;96931.86;;;19.69;80.01
56825;BME280;42705;50.326;18.772;2023-08-06T02:45:30;96931.03;;;19.65;80.03
56825;BME280;42705;50.326;18.772;2023-08-06T02:50:52;96904.52;;;19.64;79.94
56825;BME280;42705;50.326;18.772;2023-08-06T02:56:14;96909.45;;;19.61;79.98
56825;BME280;42705;50.326;18.772;2023-08-06T03:01:48;96903.11;;;19.63;80.06
56825;BME280;42705;50.326;18.772;2023-08-06T03:07:15;96898.52;;;19.65;80.05
56825;BME280;42705;50.326;18.772;2023-08-06T03:12:44;96890.34;;;19.71;80.06
56825;BME280;42705;50.326;18.772;2023-08-06T03:18:06;96882.89;;;19.79;79.87
56825;BME280;42705;50.326;18.772;2023-08-06T03:23:28;96882.33;;;19.86;79.81
56825;BME280;42705;50.326;18.772;2023-08-06T03:28:50;96892.05;;;19.88;79.72
56825;BME280;42705;50.326;18.772;2023-08-06T03:34:13;96890.89;;;19.93;79.59
56825;BME280;42705;50.326;18.772;2023-08-06T03:39:36;96883.67;;;19.94;79.58
56825;BME280;42705;50.326;18.772;2023-08-06T03:44:58;96876.56;;;19.91;79.61
56825;BME280;42705;50.326;18.772;2023-08-06T03:50:20;96881.27;;;19.94;79.50
56825;BME280;42705;50.326;18.772;2023-08-06T03:55:42;96871.42;;;19.96;79.56
56825;BME280;42705;50.326;18.772;2023-08-06T04:01:04;96864.83;;;19.99;79.32
56825;BME280;42705;50.326;18.772;2023-08-06T04:06:34;96865.76;;;19.95;79.07
56825;BME280;42705;50.326;18.772;2023-08-06T04:11:57;96864.61;;;19.75;78.94
56825;BME280;42705;50.326;18.772;2023-08-06T04:17:21;96859.34;;;19.60;78.92
56825;BME280;42705;50.326;18.772;2023-08-06T04:22:43;96859.09;;;19.41;79.24
56825;BME280;42705;50.326;18.772;2023-08-06T04:28:05;96854.41;;;19.21;79.49
56825;BME280;42705;50.326;18.772;2023-08-06T04:33:28;96854.80;;;19.00;79.68
56825;BME280;42705;50.326;18.772;2023-08-06T04:38:52;96856.15;;;18.84;80.10
56825;BME280;42705;50.326;18.772;2023-08-06T04:44:14;96848.55;;;18.71;80.19
56825;BME280;42705;50.326;18.772;2023-08-06T04:49:36;96839.48;;;18.56;80.26
56825;BME280;42705;50.326;18.772;2023-08-06T04:54:58;96830.75;;;18.48;80.18
56825;BME280;42705;50.326;18.772;2023-08-06T05:00:20;96813.50;;;18.30;79.79
56825;BME280;42705;50.326;18.772;2023-08-06T05:05:42;96817.60;;;18.04;79.72
56825;BME280;42705;50.326;18.772;2023-08-06T05:11:04;96822.51;;;17.84;79.89
56825;BME280;42705;50.326;18.772;2023-08-06T05:16:26;96822.39;;;17.73;79.99
56825;BME280;42705;50.326;18.772;2023-08-06T05:21:47;96824.20;;;17.63;80.20
56825;BME280;42705;50.326;18.772;2023-08-06T05:27:10;96818.38;;;17.61;80.22
56825;BME280;42705;50.326;18.772;2023-08-06T05:32:32;96811.13;;;17.49;79.90
56825;BME280;42705;50.326;18.772;2023-08-06T05:37:54;96813.75;;;17.44;80.15
56825;BME280;42705;50.326;18.772;2023-08-06T05:43:16;96800.70;;;17.46;80.10
56825;BME280;42705;50.326;18.772;2023-08-06T05:48:38;96806.84;;;17.47;80.13
56825;BME280;42705;50.326;18.772;2023-08-06T05:54:00;96801.19;;;17.39;79.91
56825;BME280;42705;50.326;18.772;2023-08-06T05:59:21;96802.67;;;17.31;79.83
56825;BME280;42705;50.326;18.772;2023-08-06T06:04:43;96798.95;;;17.23;79.68
56825;BME280;42705;50.326;18.772;2023-08-06T06:10:07;96781.13;;;17.16;79.84
56825;BME280;42705;50.326;18.772;2023-08-06T06:15:29;96779.23;;;17.06;79.74
56825;BME280;42705;50.326;18.772;2023-08-06T06:20:51;96761.20;;;16.90;79.69
56825;BME280;42705;50.326;18.772;2023-08-06T06:26:13;96761.27;;;16.69;79.74
56825;BME280;42705;50.326;18.772;2023-08-06T06:31:34;96751.85;;;16.50;79.86
56825;BME280;42705;50.326;18.772;2023-08-06T06:36:57;96753.48;;;16.41;80.20
56825;BME280;42705;50.326;18.772;2023-08-06T06:42:19;96743.60;;;16.37;80.32
56825;BME280;42705;50.326;18.772;2023-08-06T06:47:41;96753.25;;;16.32;80.13
56825;BME280;42705;50.326;18.772;2023-08-06T06:53:03;96772.20;;;16.26;80.07
56825;BME280;42705;50.326;18.772;2023-08-06T06:58:24;96759.95;;;16.14;79.98
56825;BME280;42705;50.326;18.772;2023-08-06T07:03:46;96743.49;;;16.05;80.08
56825;BME280;42705;50.326;18.772;2023-08-06T07:09:08;96731.02;;;15.96;79.98
56825;BME280;42705;50.326;18.772;2023-08-06T07:14:30;96720.64;;;15.88;80.25
56825;BME280;42705;50.326;18.772;2023-08-06T07:19:52;96710.89;;;15.88;80.25
56825;BME280;42705;50.326;18.772;2023-08-06T07:25:14;96721.49;;;15.81;80.25
56825;BME280;42705;50.326;18.772;2023-08-06T07:30:40;96712.83;;;15.67;80.31
56825;BME280;42705;50.326;18.772;2023-08-06T07:36:10;96714.14;;;15.55;80.58
56825;BME280;42705;50.326;18.772;2023-08-06T07:41:32;96731.58;;;15.41;80.67
56825;BME280;42705;50.326;18.772;2023-08-06T07:46:54;96723.67;;;15.31;81.01
56825;BME280;42705;50.326;18.772;2023-08-06T07:52:16;96744.72;;;15.27;81.41
56825;BME280;42705;50.326;18.772;2023-08-06T07:57:38;96749.05;;;15.28;81.31
56825;BME280;42705;50.326;18.772;2023-08-06T08:03:00;96757.40;;;15.30;81.55
56825;BME280;42705;50.326;18.772;2023-08-06T08:08:22;96736.15;;;15.28;81.36
56825;BME280;42705;50.326;18.772;2023-08-06T08:13:44;96743.59;;;15.25;81.35
56825;BME280;42705;50.326;18.772;2023-08-06T08:19:06;96751.96;;;15.24;81.71
56825;BME280;42705;50.326;18.772;2023-08-06T08:24:28;96720.11;;;15.30;81.49
56825;BME280;42705;50.326;18.772;2023-08-06T08:29:51;96692.45;;;15.33;81.62
56825;BME280;42705;50.326;18.772;2023-08-06T08:35:13;96751.73;;;15.37;81.60
56825;BME280;42705;50.326;18.772;2023-08-06T08:40:45;96753.40;;;15.48;81.57
56825;BME280;42705;50.326;18.772;2023-08-06T08:46:11;96740.37;;;15.55;81.20
56825;BME280;42705;50.326;18.772;2023-08-06T08:51:34;96718.05;;;15.60;80.65
56825;BME280;42705;50.326;18.772;2023-08-06T08:56:57;96726.04;;;15.71;80.55
56825;BME280;42705;50.326;18.772;2023-08-06T09:02:21;96742.01;;;15.81;80.53
56825;BME280;42705;50.326;18.772;2023-08-06T09:07:46;96744.55;;;15.86;80.34
56825;BME280;42705;50.326;18.772;2023-08-06T09:13:12;96743.18;;;15.95;80.29
56825;BME280;42705;50.326;18.772;2023-08-06T09:18:34;96733.70;;;16.01;79.92
56825;BME280;42705;50.326;18.772;2023-08-06T09:23:55;96727.89;;;16.05;79.82
56825;BME280;42705;50.326;18.772;2023-08-06T09:29:18;96725.68;;;16.07;79.65
56825;BME280;42705;50.326;18.772;2023-08-06T09:34:42;96731.75;;;16.05;79.70
56825;BME280;42705;50.326;18.772;2023-08-06T09:45:45;96700.36;;;15.94;79.39
56825;BME280;42705;50.326;18.772;2023-08-06T09:51:08;96708.94;;;15.88;79.50
56825;BME280;42705;50.326;18.772;2023-08-06T09:56:31;96724.46;;;15.85;79.48
56825;BME280;42705;50.326;18.772;2023-08-06T10:02:00;96728.07;;;15.95;79.47
56825;BME280;42705;50.326;18.772;2023-08-06T10:07:22;96725.41;;;15.98;79.12
56825;BME280;42705;50.326;18.772;2023-08-06T10:12:50;96721.70;;;16.03;78.90
56825;BME280;42705;50.326;18.772;2023-08-06T10:18:13;96725.63;;;16.09;78.87
56825;BME280;42705;50.326;18.772;2023-08-06T10:23:40;96716.45;;;16.03;78.75
56825;BME280;42705;50.326;18.772;2023-08-06T10:29:38;96730.10;;;15.99;78.80
56825;BME280;42705;50.326;18.772;2023-08-06T10:35:00;96734.77;;;16.03;79.11
56825;BME280;42705;50.326;18.772;2023-08-06T10:40:22;96754.08;;;16.02;78.96
56825;BME280;42705;50.326;18.772;2023-08-06T10:45:50;96759.84;;;15.86;78.48
56825;BME280;42705;50.326;18.772;2023-08-06T10:51:13;96775.27;;;15.70;78.73
56825;BME280;42705;50.326;18.772;2023-08-06T10:56:40;96771.93;;;15.58;78.93
56825;BME280;42705;50.326;18.772;2023-08-06T11:02:03;96787.80;;;15.53;78.97
56825;BME280;42705;50.326;18.772;2023-08-06T11:07:29;96791.34;;;15.44;79.00
56825;BME280;42705;50.326;18.772;2023-08-06T11:12:51;96775.44;;;15.45;79.32
56825;BME280;42705;50.326;18.772;2023-08-06T11:18:15;96772.75;;;15.45;79.25
56825;BME280;42705;50.326;18.772;2023-08-06T11:23:37;96786.60;;;15.48;79.40
56825;BME280;42705;50.326;18.772;2023-08-06T11:28:59;96804.61;;;15.38;79.49
56825;BME280;42705;50.326;18.772;2023-08-06T11:34:21;96820.06;;;15.31;79.57
56825;BME280;42705;50.326;18.772;2023-08-06T11:39:47;96836.23;;;15.28;79.97
56825;BME280;42705;50.326;18.772;2023-08-06T11:45:12;96831.65;;;15.27;80.20
56825;BME280;42705;50.326;18.772;2023-08-06T11:50:37;96820.19;;;15.31;80.21
56825;BME280;42705;50.326;18.772;2023-08-06T11:56:03;96817.88;;;15.45;80.05
56825;BME280;42705;50.326;18.772;2023-08-06T12:01:25;96823.70;;;15.61;79.85
56825;BME280;42705;50.326;18.772;2023-08-06T12:06:47;96820.52;;;15.68;79.93
56825;BME280;42705;50.326;18.772;2023-08-06T12:12:09;96818.40;;;15.82;79.85
56825;BME280;42705;50.326;18.772;2023-08-06T12:17:32;96829.53;;;15.92;79.74
56825;BME280;42705;50.326;18.772;2023-08-06T12:22:54;96839.77;;;16.03;79.70
56825;BME280;42705;50.326;18.772;2023-08-06T12:28:15;96848.98;;;15.86;79.63
56825;BME280;42705;50.326;18.772;2023-08-06T12:33:38;96852.19;;;15.69;79.80
56825;BME280;42705;50.326;18.772;2023-08-06T12:38:59;96856.75;;;15.60;79.94
56825;BME280;42705;50.326;18.772;2023-08-06T12:44:21;96864.70;;;15.60;80.01
56825;BME280;42705;50.326;18.772;2023-08-06T12:49:43;96869.28;;;15.69;79.97
56825;BME280;42705;50.326;18.772;2023-08-06T12:55:06;96871.27;;;15.67;80.34
56825;BME280;42705;50.326;18.772;2023-08-06T13:00:28;96876.30;;;15.64;80.41
56825;BME280;42705;50.326;18.772;2023-08-06T13:05:50;96877.56;;;15.56;80.37
56825;BME280;42705;50.326;18.772;2023-08-06T13:11:12;96862.82;;;15.63;80.61
56825;BME280;42705;50.326;18.772;2023-08-06T13:16:35;96858.28;;;15.68;80.50
56825;BME280;42705;50.326;18.772;2023-08-06T13:22:00;96856.43;;;15.72;80.16
56825;BME280;42705;50.326;18.772;2023-08-06T13:27:31;96858.48;;;15.82;80.13
56825;BME280;42705;50.326;18.772;2023-08-06T13:32:53;96866.79;;;15.97;80.16
56825;BME280;42705;50.326;18.772;2023-08-06T13:38:17;96876.09;;;16.04;79.91
56825;BME280;42705;50.326;18.772;2023-08-06T13:43:39;96884.29;;;15.95;79.70
56825;BME280;42705;50.326;18.772;2023-08-06T13:49:01;96885.38;;;15.94;79.83
56825;BME280;42705;50.326;18.772;2023-08-06T13:54:23;96884.85;;;16.18;79.43
56825;BME280;42705;50.326;18.772;2023-08-06T13:59:45;96891.06;;;16.31;79.21
56825;BME280;42705;50.326;18.772;2023-08-06T14:05:07;96897.48;;;16.31;79.32
56825;BME280;42705;50.326;18.772;2023-08-06T14:10:29;96894.14;;;16.76;78.45
56825;BME280;42705;50.326;18.772;2023-08-06T14:15:51;96896.48;;;17.12;78.18
56825;BME280;42705;50.326;18.772;2023-08-06T14:21:13;96898.05;;;17.01;78.13
56825;BME280;42705;50.326;18.772;2023-08-06T14:26:35;96898.66;;;16.78;78.09
56825;BME280;42705;50.326;18.772;2023-08-06T14:31:57;96916.09;;;16.62;77.99
56825;BME280;42705;50.326;18.772;2023-08-06T14:37:19;96929.89;;;16.34;78.16
56825;BME280;42705;50.326;18.772;2023-08-06T14:42:43;96938.54;;;16.12;78.30
56825;BME280;42705;50.326;18.772;2023-08-06T14:48:06;96948.85;;;16.05;78.48
56825;BME280;42705;50.326;18.772;2023-08-06T14:53:28;96963.67;;;16.02;78.69
56825;BME280;42705;50.326;18.772;2023-08-06T14:58:50;96978.25;;;15.88;79.03
56825;BME280;42705;50.326;18.772;2023-08-06T15:04:12;96981.88;;;15.93;78.89
56825;BME280;42705;50.326;18.772;2023-08-06T15:09:34;96986.70;;;15.92;78.88
56825;BME280;42705;50.326;18.772;2023-08-06T15:14:56;96994.86;;;15.91;78.80
56825;BME280;42705;50.326;18.772;2023-08-06T15:20:18;96978.21;;;15.84;78.87
56825;BME280;42705;50.326;18.772;2023-08-06T15:25:40;96981.67;;;15.73;78.88
56825;BME280;42705;50.326;18.772;2023-08-06T15:31:02;96987.73;;;15.59;78.89
56825;BME280;42705;50.326;18.772;2023-08-06T15:36:27;96979.23;;;15.57;78.96
56825;BME280;42705;50.326;18.772;2023-08-06T15:41:49;96986.58;;;15.55;78.74
56825;BME280;42705;50.326;18.772;2023-08-06T15:47:11;96987.58;;;15.47;78.90
56825;BME280;42705;50.326;18.772;2023-08-06T15:52:34;96999.41;;;15.39;78.96
56825;BME280;42705;50.326;18.772;2023-08-06T15:57:56;97014.14;;;15.34;79.38
56825;BME280;42705;50.326;18.772;2023-08-06T16:03:18;97033.95;;;15.30;79.48
56825;BME280;42705;50.326;18.772;2023-08-06T16:08:40;97043.86;;;15.25;79.68
56825;BME280;42705;50.326;18.772;2023-08-06T16:14:02;97051.98;;;15.22;79.58
56825;BME280;42705;50.326;18.772;2023-08-06T16:19:24;97067.16;;;15.20;79.59
56825;BME280;42705;50.326;18.772;2023-08-06T16:24:46;97082.00;;;15.19;79.62
56825;BME280;42705;50.326;18.772;2023-08-06T16:30:10;97091.67;;;15.25;79.56
56825;BME280;42705;50.326;18.772;2023-08-06T16:35:32;97087.16;;;15.30;79.25
56825;BME280;42705;50.326;18.772;2023-08-06T16:40:54;97097.91;;;15.33;79.14
56825;BME280;42705;50.326;18.772;2023-08-06T16:46:17;97093.29;;;15.43;79.17
56825;BME280;42705;50.326;18.772;2023-08-06T16:51:39;97095.71;;;15.48;79.06
56825;BME280;42705;50.326;18.772;2023-08-06T16:57:02;97109.73;;;15.47;78.79
56825;BME280;42705;50.326;18.772;2023-08-06T17:02:24;97111.70;;;15.43;78.36
56825;BME280;42705;50.326;18.772;2023-08-06T17:07:46;97118.91;;;15.40;77.89
56825;BME280;42705;50.326;18.772;2023-08-06T17:13:11;97125.90;;;15.36;77.74
56825;BME280;42705;50.326;18.772;2023-08-06T17:18:33;97128.89;;;15.35;77.90
56825;BME280;42705;50.326;18.772;2023-08-06T17:23:55;97129.58;;;15.28;77.52
56825;BME280;42705;50.326;18.772;2023-08-06T17:29:17;97136.63;;;15.17;77.39
56825;BME280;42705;50.326;18.772;2023-08-06T17:34:43;97142.63;;;15.10;77.35
56825;BME280;42705;50.326;18.772;2023-08-06T17:40:07;97147.41;;;15.02;77.24
56825;BME280;42705;50.326;18.772;2023-08-06T17:45:30;97147.60;;;14.95;77.35
56825;BME280;42705;50.326;18.772;2023-08-06T17:50:52;97145.08;;;14.91;77.27
56825;BME280;42705;50.326;18.772;2023-08-06T17:56:14;97146.49;;;14.91;77.66
56825;BME280;42705;50.326;18.772;2023-08-06T18:01:37;97149.66;;;14.90;77.62
56825;BME280;42705;50.326;18.772;2023-08-06T18:06:59;97144.09;;;14.91;77.84
56825;BME280;42705;50.326;18.772;2023-08-06T18:12:21;97153.10;;;14.90;77.93
56825;BME280;42705;50.326;18.772;2023-08-06T18:17:43;97151.48;;;14.81;78.27
56825;BME280;42705;50.326;18.772;2023-08-06T18:23:06;97164.80;;;14.76;78.34
56825;BME280;42705;50.326;18.772;2023-08-06T18:28:28;97167.34;;;14.74;78.50
56825;BME280;42705;50.326;18.772;2023-08-06T18:33:50;97173.92;;;14.70;78.39
56825;BME280;42705;50.326;18.772;2023-08-06T18:39:14;97175.68;;;14.65;78.40
56825;BME280;42705;50.326;18.772;2023-08-06T18:44:35;97179.33;;;14.65;78.32
56825;BME280;42705;50.326;18.772;2023-08-06T18:49:58;97180.30;;;14.67;78.06
56825;BME280;42705;50.326;18.772;2023-08-06T18:55:21;97183.66;;;14.63;77.97
56825;BME280;42705;50.326;18.772;2023-08-06T19:00:43;97182.61;;;14.61;77.64
56825;BME280;42705;50.326;18.772;2023-08-06T19:06:07;97178.55;;;14.61;77.77
56825;BME280;42705;50.326;18.772;2023-08-06T19:11:30;97180.08;;;14.58;77.85
56825;BME280;42705;50.326;18.772;2023-08-06T19:16:54;97178.17;;;14.59;77.70
56825;BME280;42705;50.326;18.772;2023-08-06T19:22:21;97184.03;;;14.61;77.87
56825;BME280;42705;50.326;18.772;2023-08-06T19:27:45;97192.94;;;14.60;77.99
56825;BME280;42705;50.326;18.772;2023-08-06T19:33:09;97193.33;;;14.57;77.93
56825;BME280;42705;50.326;18.772;2023-08-06T19:38:36;97196.78;;;14.54;78.00
56825;BME280;42705;50.326;18.772;2023-08-06T19:43:59;97190.98;;;14.51;78.32
56825;BME280;42705;50.326;18.772;2023-08-06T19:49:22;97193.81;;;14.51;78.45
56825;BME280;42705;50.326;18.772;2023-08-06T19:54:44;97194.79;;;14.50;78.48
56825;BME280;42705;50.326;18.772;2023-08-06T20:00:08;97208.23;;;14.46;78.95
56825;BME280;42705;50.326;18.772;2023-08-06T20:05:34;97214.33;;;14.47;79.05
56825;BME280;42705;50.326;18.772;2023-08-06T20:10:57;97220.23;;;14.48;79.22
56825;BME280;42705;50.326;18.772;2023-08-06T20:16:19;97216.39;;;14.41;79.44
56825;BME280;42705;50.326;18.772;2023-08-06T20:21:42;97207.13;;;14.38;79.56
56825;BME280;42705;50.326;18.772;2023-08-06T20:27:06;97205.33;;;14.39;80.04
56825;BME280;42705;50.326;18.772;2023-08-06T20:32:29;97202.50;;;14.33;80.25
56825;BME280;42705;50.326;18.772;2023-08-06T20:37:52;97205.26;;;14.25;80.14
56825;BME280;42705;50.326;18.772;2023-08-06T20:43:16;97198.16;;;14.26;80.33
56825;BME280;42705;50.326;18.772;2023-08-06T20:48:42;97195.01;;;14.25;80.52
56825;BME280;42705;50.326;18.772;2023-08-06T20:54:05;97198.42;;;14.21;80.72
56825;BME280;42705;50.326;18.772;2023-08-06T20:59:26;97204.74;;;14.21;80.76
56825;BME280;42705;50.326;18.772;2023-08-06T21:04:52;97200.41;;;14.22;80.51
56825;BME280;42705;50.326;18.772;2023-08-06T21:10:14;97204.31;;;14.18;80.41
56825;BME280;42705;50.326;18.772;2023-08-06T21:15:37;97207.69;;;14.20;80.49
56825;BME280;42705;50.326;18.772;2023-08-06T21:21:00;97203.22;;;14.22;80.40
56825;BME280;42705;50.326;18.772;2023-08-06T21:26:22;97212.05;;;14.17;80.25
56825;BME280;42705;50.326;18.772;2023-08-06T21:31:44;97213.98;;;14.14;80.10
56825;BME280;42705;50.326;18.772;2023-08-06T21:37:06;97218.83;;;14.12;80.29
56825;BME280;42705;50.326;18.772;2023-08-06T21:42:28;97217.27;;;14.10;80.35
56825;BME280;42705;50.326;18.772;2023-08-06T21:47:50;97209.98;;;14.12;80.71
56825;BME280;42705;50.326;18.772;2023-08-06T21:53:11;97199.02;;;14.14;80.69
56825;BME280;42705;50.326;18.772;2023-08-06T21:58:55;97195.41;;;14.13;81.05
56825;BME280;42705;50.326;18.772;2023-08-06T22:04:19;97193.25;;;14.10;80.92
56825;BME280;42705;50.326;18.772;2023-08-06T22:09:41;97200.70;;;14.11;81.02
56825;BME280;42705;50.326;18.772;2023-08-06T22:15:04;97205.23;;;14.09;81.21
56825;BME280;42705;50.326;18.772;2023-08-06T22:20:26;97208.39;;;14.07;81.03
56825;BME280;42705;50.326;18.772;2023-08-06T22:25:48;97215.08;;;14.10;81.21
56825;BME280;42705;50.326;18.772;2023-08-06T22:31:10;97207.23;;;14.09;81.45
56825;BME280;42705;50.326;18.772;2023-08-06T22:36:36;97209.36;;;14.09;81.32
56825;BME280;42705;50.326;18.772;2023-08-06T22:41:58;97214.39;;;14.11;81.48
56825;BME280;42705;50.326;18.772;2023-08-06T22:47:20;97213.46;;;14.10;81.41
56825;BME280;42705;50.326;18.772;2023-08-06T22:52:42;97216.70;;;14.09;81.45
56825;BME280;42705;50.326;18.772;2023-08-06T22:58:05;97214.94;;;14.11;81.61
56825;BME280;42705;50.326;18.772;2023-08-06T23:03:27;97215.40;;;14.09;81.70
56825;BME280;42705;50.326;18.772;2023-08-06T23:08:49;97219.80;;;14.06;81.88
56825;BME280;42705;50.326;18.772;2023-08-06T23:14:11;97219.77;;;14.01;81.90
56825;BME280;42705;50.326;18.772;2023-08-06T23:19:33;97224.02;;;13.97;82.09
56825;BME280;42705;50.326;18.772;2023-08-06T23:24:55;97236.59;;;13.98;82.19
56825;BME280;42705;50.326;18.772;2023-08-06T23:30:17;97243.73;;;14.01;82.35
56825;BME280;42705;50.326;18.772;2023-08-06T23:35:38;97245.73;;;14.03;82.43
56825;BME280;42705;50.326;18.772;2023-08-06T23:41:00;97250.42;;;14.06;82.49
56825;BME280;42705;50.326;18.772;2023-08-06T23:46:22;97254.48;;;14.12;82.60
56825;BME280;42705;50.326;18.772;2023-08-06T23:51:44;97258.05;;;14.14;82.31
56825;BME280;42705;50.326;18.772;2023-08-06T23:57:08;97256.56;;;14.15;82.31
